createdAt,value
2022-12-12T00:01:21.745Z,8.25
2022-12-12T00:03:49.454Z,9.07
2022-12-12T00:06:17.114Z,8.07
2022-12-12T00:08:44.654Z,7.53
2022-12-12T00:11:13.748Z,8.05
2022-12-12T00:13:41.656Z,7.40
2022-12-12T00:16:11.347Z,7.63
2022-12-12T00:18:41.258Z,7.75
2022-12-12T00:21:15.378Z,7.57
2022-12-12T00:23:43.353Z,7.50
2022-12-12T00:26:17.387Z,7.43
2022-12-12T00:28:44.949Z,7.68
2022-12-12T00:31:14.367Z,7.50
2022-12-12T00:33:43.545Z,8.13
2022-12-12T00:36:12.519Z,7.85
2022-12-12T00:38:40.292Z,8.30
2022-12-12T00:41:09.259Z,8.43
2022-12-12T00:43:36.975Z,8.32
2022-12-12T00:46:05.309Z,7.60
2022-12-12T00:48:34.444Z,7.57
2022-12-12T00:51:08.917Z,7.13
2022-12-12T00:53:37.248Z,6.95
2022-12-12T00:56:05.838Z,6.32
2022-12-12T00:58:34.607Z,6.30
2022-12-12T01:01:06.394Z,6.50
2022-12-12T01:03:37.283Z,6.10
2022-12-12T01:06:05.658Z,6.57
2022-12-12T01:08:33.497Z,6.47
2022-12-12T01:11:01.084Z,7.10
2022-12-12T01:13:29.122Z,7.10
2022-12-12T01:15:56.899Z,6.90
2022-12-12T01:18:24.559Z,6.95
2022-12-12T01:20:53.549Z,6.88
2022-12-12T01:23:21.121Z,6.90
2022-12-12T01:25:48.696Z,6.47
2022-12-12T01:28:16.364Z,6.05
2022-12-12T01:30:43.957Z,6.10
2022-12-12T01:33:11.541Z,6.25
2022-12-12T01:35:39.144Z,6.88
2022-12-12T01:38:08.071Z,6.60
2022-12-12T01:40:35.923Z,7.15
2022-12-12T01:43:03.518Z,6.90
2022-12-12T01:46:20.217Z,6.68
2022-12-12T01:48:53.359Z,7.20
2022-12-12T01:51:23.274Z,7.18
2022-12-12T01:53:58.182Z,6.70
2022-12-12T01:56:26.441Z,6.88
2022-12-12T01:58:55.310Z,6.80
2022-12-12T02:01:24.182Z,6.80
2022-12-12T02:03:51.972Z,6.72
2022-12-12T02:06:23.467Z,7.00
2022-12-12T02:08:55.826Z,6.47
2022-12-12T02:11:23.455Z,7.07
2022-12-12T02:13:51.889Z,7.33
2022-12-12T02:16:29.782Z,7.30
2022-12-12T02:19:07.951Z,6.90
2022-12-12T02:21:44.194Z,6.90
2022-12-12T02:25:01.813Z,7.55
2022-12-12T02:28:00.474Z,7.18
2022-12-12T02:30:41.250Z,7.50
2022-12-12T02:33:22.556Z,7.63
2022-12-12T02:36:00.458Z,7.55
2022-12-12T02:38:32.425Z,7.40
2022-12-12T02:41:10.189Z,6.70
2022-12-12T02:43:42.763Z,7.43
2022-12-12T02:46:16.136Z,7.45
2022-12-12T02:48:50.643Z,7.68
2022-12-12T02:51:20.169Z,7.35
2022-12-12T02:53:47.839Z,7.50
2022-12-12T02:56:48.546Z,7.63
2022-12-12T02:59:21.743Z,7.70
2022-12-12T03:02:30.818Z,7.22
2022-12-12T03:05:46.223Z,7.13
2022-12-12T03:08:31.784Z,7.35
2022-12-12T03:11:03.446Z,7.23
2022-12-12T03:13:38.723Z,7.72
2022-12-12T03:16:18.940Z,7.55
2022-12-12T03:18:57.737Z,8.45
2022-12-12T03:21:36.419Z,7.80
2022-12-12T03:24:07.828Z,8.13
2022-12-12T03:26:44.292Z,9.98
2022-12-12T03:29:16.202Z,11.07
2022-12-12T03:31:47.898Z,10.68
2022-12-12T03:34:20.155Z,9.60
2022-12-12T03:36:53.162Z,8.40
2022-12-12T03:39:27.484Z,7.32
2022-12-12T03:41:59.328Z,7.45
2022-12-12T03:44:39.785Z,7.05
2022-12-12T03:47:13.218Z,6.63
2022-12-12T03:49:46.447Z,6.80
2022-12-12T03:52:21.578Z,7.10
2022-12-12T03:54:54.813Z,7.55
2022-12-12T03:57:28.555Z,7.57
2022-12-12T04:00:02.470Z,6.97
2022-12-12T04:02:35.928Z,7.38
2022-12-12T04:05:14.886Z,6.70
2022-12-12T04:07:49.521Z,7.18
2022-12-12T04:10:34.947Z,6.95
2022-12-12T04:13:11.925Z,6.90
2022-12-12T04:15:52.692Z,7.23
2022-12-12T04:18:28.010Z,6.90
2022-12-12T04:21:33.065Z,6.90
2022-12-12T04:24:14.184Z,6.82
2022-12-12T04:26:47.450Z,6.97
2022-12-12T04:29:30.266Z,7.00
2022-12-12T04:32:01.856Z,6.93
2022-12-12T04:34:37.987Z,7.13
2022-12-12T04:37:07.782Z,7.55
2022-12-12T04:39:39.590Z,7.38
2022-12-12T04:42:11.159Z,7.75
2022-12-12T04:44:43.425Z,7.38
2022-12-12T04:47:12.627Z,7.87
2022-12-12T04:49:42.404Z,7.20
2022-12-12T04:52:13.338Z,7.78
2022-12-12T04:54:45.828Z,7.72
2022-12-12T04:57:21.143Z,7.22
2022-12-12T04:59:49.724Z,7.35
2022-12-12T05:02:23.133Z,7.22
2022-12-12T05:04:57.172Z,7.53
2022-12-12T05:07:39.566Z,8.00
2022-12-12T05:10:14.309Z,8.20
2022-12-12T05:12:44.691Z,7.93
2022-12-12T05:15:12.907Z,7.93
2022-12-12T05:17:44.538Z,8.60
2022-12-12T05:20:12.512Z,8.52
2022-12-12T05:22:40.160Z,8.27
2022-12-12T05:25:10.036Z,8.53
2022-12-12T05:27:38.005Z,8.32
2022-12-12T05:30:06.936Z,9.10
2022-12-12T05:32:34.782Z,8.73
2022-12-12T05:35:02.441Z,8.65
2022-12-12T05:37:30.017Z,8.45
2022-12-12T05:39:57.613Z,8.50
2022-12-12T05:42:26.596Z,8.30
2022-12-12T05:44:54.176Z,8.33
2022-12-12T05:47:21.832Z,9.07
2022-12-12T05:49:49.465Z,7.72
2022-12-12T05:52:17.216Z,8.77
2022-12-12T05:54:44.851Z,8.77
2022-12-12T05:57:12.550Z,8.40
2022-12-12T05:59:41.456Z,8.60
2022-12-12T06:02:09.152Z,8.82
2022-12-12T06:04:36.778Z,8.35
2022-12-12T06:07:04.407Z,9.20
2022-12-12T06:09:33.315Z,8.38
2022-12-12T06:12:00.953Z,9.02
2022-12-12T06:14:28.668Z,8.57
2022-12-12T06:16:58.602Z,9.07
2022-12-12T06:19:26.254Z,9.85
2022-12-12T06:21:53.886Z,8.57
2022-12-12T06:24:21.434Z,8.57
2022-12-12T06:26:49.103Z,9.07
2022-12-12T06:29:16.743Z,9.30
2022-12-12T06:31:44.499Z,9.03
2022-12-12T06:34:13.467Z,8.40
2022-12-12T06:36:41.134Z,8.80
2022-12-12T06:39:09.714Z,9.47
2022-12-12T06:41:37.826Z,9.05
2022-12-12T06:44:05.762Z,9.15
2022-12-12T06:46:33.434Z,8.85
2022-12-12T06:49:01.114Z,9.15
2022-12-12T06:51:33.360Z,9.53
2022-12-12T06:54:00.953Z,9.82
2022-12-12T06:56:28.942Z,10.35
2022-12-12T06:58:57.044Z,9.38
2022-12-12T07:01:25.212Z,9.02
2022-12-12T07:03:53.906Z,9.07
2022-12-12T07:06:23.324Z,8.90
2022-12-12T07:08:52.670Z,8.93
2022-12-12T07:11:22.811Z,9.10
2022-12-12T07:13:50.800Z,9.95
2022-12-12T07:16:20.407Z,9.20
2022-12-12T07:18:48.549Z,9.68
2022-12-12T07:21:18.170Z,9.23
2022-12-12T07:23:46.094Z,9.88
2022-12-12T07:26:17.369Z,9.63
2022-12-12T07:28:45.058Z,10.17
2022-12-12T07:31:14.293Z,8.93
2022-12-12T07:33:44.377Z,9.52
2022-12-12T07:36:13.160Z,9.67
2022-12-12T07:38:41.043Z,9.38
2022-12-12T07:41:10.450Z,9.52
2022-12-12T07:43:43.700Z,9.38
2022-12-12T07:46:16.195Z,9.45
2022-12-12T07:48:44.558Z,9.70
2022-12-12T07:51:13.324Z,10.18
2022-12-12T07:53:41.304Z,10.00
2022-12-12T07:56:10.803Z,10.48
2022-12-12T07:58:39.877Z,10.02
2022-12-12T08:01:14.928Z,10.70
2022-12-12T08:03:43.171Z,9.80
2022-12-12T08:06:11.094Z,9.18
2022-12-12T08:08:39.083Z,9.43
2022-12-12T08:11:07.971Z,10.35
2022-12-12T08:13:36.669Z,10.05
2022-12-12T08:16:08.080Z,9.57
2022-12-12T08:18:36.327Z,11.68
2022-12-12T08:21:08.068Z,10.75
2022-12-12T08:23:36.803Z,10.02
2022-12-12T08:26:06.882Z,10.43
2022-12-12T08:28:34.453Z,10.25
2022-12-12T08:31:02.175Z,10.70
2022-12-12T08:33:31.327Z,10.25
2022-12-12T08:35:58.967Z,10.65
2022-12-12T08:38:26.765Z,10.25
2022-12-12T08:40:54.402Z,10.27
2022-12-12T08:43:21.960Z,11.10
2022-12-12T08:45:49.582Z,10.30
2022-12-12T08:48:17.218Z,11.38
2022-12-12T08:50:46.209Z,11.43
2022-12-12T08:53:13.856Z,11.20
2022-12-12T08:55:42.218Z,11.40
2022-12-12T08:58:09.873Z,10.85
2022-12-12T09:00:37.637Z,11.52
2022-12-12T09:03:05.661Z,11.15
2022-12-12T09:05:33.311Z,11.27
2022-12-12T09:08:02.321Z,11.77
2022-12-12T09:10:30.465Z,11.82
2022-12-12T09:12:58.176Z,12.00
2022-12-12T09:15:25.796Z,11.73
2022-12-12T09:17:53.412Z,11.85
2022-12-12T09:20:21.005Z,11.32
2022-12-12T09:22:48.621Z,11.80
2022-12-12T09:25:17.659Z,12.35
2022-12-12T09:27:45.270Z,11.52
2022-12-12T09:30:13.820Z,11.80
2022-12-12T09:32:45.239Z,11.60
2022-12-12T09:37:41.103Z,11.10
2022-12-12T09:40:12.046Z,11.23
2022-12-12T09:42:48.907Z,11.75
2022-12-12T09:45:17.477Z,12.65
2022-12-12T09:47:48.495Z,12.27
2022-12-12T09:50:24.351Z,12.40
2022-12-12T09:52:53.596Z,11.90
2022-12-12T09:55:35.583Z,11.30
2022-12-12T09:58:09.695Z,11.68
2022-12-12T10:00:41.093Z,10.17
2022-12-12T10:03:28.938Z,10.45
2022-12-12T10:06:28.520Z,10.23
2022-12-12T10:09:07.220Z,11.18
2022-12-12T10:11:54.811Z,11.13
2022-12-12T10:14:28.929Z,11.88
2022-12-12T10:16:59.539Z,11.40
2022-12-12T10:19:31.194Z,11.20
2022-12-12T10:22:05.464Z,11.05
2022-12-12T10:24:38.080Z,11.18
2022-12-12T10:27:11.385Z,10.27
2022-12-12T10:29:42.461Z,9.75
2022-12-12T10:32:22.035Z,9.67
2022-12-12T10:35:03.360Z,9.65
2022-12-12T10:37:42.564Z,9.52
2022-12-12T10:40:25.220Z,8.90
2022-12-12T10:42:58.908Z,9.23
2022-12-12T10:45:49.221Z,9.30
2022-12-12T10:48:16.932Z,10.00
2022-12-12T10:50:46.067Z,9.60
2022-12-12T10:53:14.044Z,9.07
2022-12-12T10:55:48.846Z,8.27
2022-12-12T10:58:18.154Z,9.00
2022-12-12T11:00:49.526Z,10.20
2022-12-12T11:03:26.482Z,10.00
2022-12-12T11:05:55.027Z,9.05
2022-12-12T11:08:27.880Z,8.55
2022-12-12T11:11:08.320Z,9.45
2022-12-12T11:13:47.250Z,10.90
2022-12-12T11:16:19.488Z,11.27
2022-12-12T11:19:02.362Z,11.45
2022-12-12T11:21:32.655Z,11.80
2022-12-12T11:24:01.461Z,12.40
2022-12-12T11:26:30.111Z,11.77
2022-12-12T11:29:00.792Z,10.88
2022-12-12T11:31:35.273Z,11.70
2022-12-12T11:34:06.807Z,11.63
2022-12-12T11:36:37.324Z,10.85
2022-12-12T11:39:16.325Z,12.07
2022-12-12T11:41:59.321Z,12.68
2022-12-12T11:44:31.518Z,13.65
2022-12-12T11:47:21.326Z,13.32
2022-12-12T11:49:50.776Z,12.57
2022-12-12T11:52:20.237Z,12.38
2022-12-12T11:54:48.109Z,12.65
2022-12-12T11:57:30.169Z,12.85
2022-12-12T12:00:12.061Z,13.10
2022-12-12T12:03:18.716Z,12.07
2022-12-12T12:06:00.544Z,12.02
2022-12-12T12:08:41.928Z,12.07
2022-12-12T12:11:20.387Z,11.48
2022-12-12T12:14:03.543Z,12.10
2022-12-12T12:16:41.499Z,11.30
2022-12-12T12:19:16.931Z,9.88
2022-12-12T12:21:58.192Z,9.88
2022-12-12T12:24:50.249Z,10.40
2022-12-12T12:27:26.913Z,10.77
2022-12-12T12:30:30.351Z,11.23
2022-12-12T12:33:12.528Z,11.82
2022-12-12T12:35:54.111Z,11.32
2022-12-12T12:38:27.707Z,12.02
2022-12-12T12:41:20.614Z,11.70
2022-12-12T12:44:02.401Z,12.15
2022-12-12T12:46:40.751Z,12.85
2022-12-12T12:49:17.637Z,13.48
2022-12-12T12:51:50.925Z,13.48
2022-12-12T12:54:25.143Z,14.55
2022-12-12T12:56:59.830Z,14.75
2022-12-12T12:59:34.096Z,14.25
2022-12-12T13:02:10.816Z,14.07
2022-12-12T13:04:46.612Z,15.48
2022-12-12T13:07:22.877Z,14.95
2022-12-12T13:09:58.062Z,14.05
2022-12-12T13:12:30.635Z,13.68
2022-12-12T13:15:03.095Z,13.87
2022-12-12T13:17:45.267Z,13.10
2022-12-12T13:20:17.106Z,12.95
2022-12-12T13:22:54.851Z,14.10
2022-12-12T13:25:34.157Z,13.30
2022-12-12T13:28:06.885Z,12.63
2022-12-12T13:30:49.670Z,12.10
2022-12-12T13:33:37.616Z,12.03
2022-12-12T13:36:13.600Z,12.23
2022-12-12T13:38:46.430Z,12.90
2022-12-12T13:41:15.392Z,12.75
2022-12-12T13:43:47.120Z,12.68
2022-12-12T13:46:37.013Z,12.75
2022-12-12T13:49:29.570Z,12.15
2022-12-12T13:52:29.203Z,12.10
2022-12-12T13:55:19.074Z,11.95
2022-12-12T13:58:33.055Z,12.93
2022-12-12T14:01:40.122Z,14.25
2022-12-12T14:04:26.171Z,11.57
2022-12-12T14:07:01.738Z,11.40
2022-12-12T14:09:47.051Z,11.23
2022-12-12T14:12:21.983Z,11.73
2022-12-12T14:14:58.210Z,11.55
2022-12-12T14:17:30.157Z,12.68
2022-12-12T14:19:59.916Z,11.60
2022-12-12T14:22:28.336Z,11.93
2022-12-12T14:25:08.443Z,12.95
2022-12-12T14:28:03.209Z,13.07
2022-12-12T14:31:18.572Z,13.30
2022-12-12T14:34:18.140Z,13.52
2022-12-12T14:37:22.526Z,13.18
2022-12-12T14:40:00.340Z,13.70
2022-12-12T14:43:19.777Z,14.20
2022-12-12T14:45:27.189Z,13.68
2022-12-12T14:48:14.977Z,13.82
2022-12-12T14:50:48.904Z,13.90
2022-12-12T14:53:19.812Z,13.40
2022-12-12T14:55:53.540Z,14.32
2022-12-12T14:58:23.592Z,14.93
2022-12-12T15:00:53.879Z,14.63
2022-12-12T15:03:27.332Z,17.02
2022-12-12T15:06:31.248Z,17.00
2022-12-12T15:09:09.555Z,18.23
2022-12-12T15:11:37.228Z,18.25
2022-12-12T15:14:05.262Z,20.00
2022-12-12T15:16:46.063Z,23.90
2022-12-12T15:19:19.375Z,18.60
2022-12-12T15:21:48.874Z,20.80
2022-12-12T15:24:22.712Z,21.42
2022-12-12T15:26:52.718Z,31.27
2022-12-12T15:29:23.891Z,21.85
2022-12-12T15:31:59.649Z,22.35
2022-12-12T15:34:33.393Z,22.42
2022-12-12T15:37:27.308Z,24.05
2022-12-12T15:40:21.160Z,23.42
2022-12-12T15:42:54.358Z,25.92
2022-12-12T15:45:26.836Z,23.73
2022-12-12T15:47:56.597Z,22.63
2022-12-12T15:50:28.217Z,27.00
2022-12-12T15:53:04.367Z,26.77
2022-12-12T15:55:32.896Z,34.45
2022-12-12T15:58:00.686Z,34.53
2022-12-12T16:00:33.252Z,27.88
2022-12-12T16:03:03.990Z,25.97
2022-12-12T16:05:33.586Z,24.77
2022-12-12T16:08:38.222Z,27.50
2022-12-12T16:11:08.323Z,22.20
2022-12-12T16:13:38.438Z,20.10
2022-12-12T16:16:43.429Z,20.38
2022-12-12T16:19:37.137Z,20.10
2022-12-12T16:22:06.599Z,21.13
2022-12-12T16:24:46.787Z,18.80
2022-12-12T16:27:15.451Z,22.55
2022-12-12T16:29:43.282Z,20.60
2022-12-12T16:32:14.776Z,19.83
2022-12-12T16:34:42.990Z,20.08
2022-12-12T16:37:15.139Z,22.40
2022-12-12T16:39:44.193Z,20.90
2022-12-12T16:42:16.240Z,20.77
2022-12-12T16:44:44.704Z,20.45
2022-12-12T16:47:16.788Z,20.67
2022-12-12T16:49:44.708Z,21.48
2022-12-12T16:52:14.298Z,21.20
2022-12-12T16:54:42.084Z,22.13
2022-12-12T16:57:11.248Z,26.70
2022-12-12T16:59:39.374Z,23.17
2022-12-12T17:02:18.331Z,35.20
2022-12-12T17:04:45.924Z,26.30
2022-12-12T17:07:13.867Z,22.73
2022-12-12T17:09:41.532Z,19.95
2022-12-12T17:12:11.636Z,19.33
2022-12-12T17:14:40.595Z,20.67
2022-12-12T17:17:08.622Z,18.40
2022-12-12T17:19:36.378Z,20.00
2022-12-12T17:22:04.716Z,21.55
2022-12-12T17:24:34.623Z,21.50
2022-12-12T17:27:02.451Z,23.77
2022-12-12T17:29:30.031Z,23.70
2022-12-12T17:31:59.170Z,23.38
2022-12-12T17:34:26.881Z,22.73
2022-12-12T17:36:54.503Z,23.60
2022-12-12T17:39:22.865Z,28.57
2022-12-12T17:41:50.487Z,25.77
2022-12-12T17:44:18.378Z,22.85
2022-12-12T17:46:46.149Z,23.02
2022-12-12T17:49:15.037Z,24.30
2022-12-12T17:51:42.770Z,23.45
2022-12-12T17:54:10.494Z,23.00
2022-12-12T17:56:38.189Z,24.13
2022-12-12T17:59:08.182Z,24.02
2022-12-12T18:01:36.294Z,23.53
2022-12-12T18:04:05.395Z,22.10
2022-12-12T18:06:35.974Z,20.95
2022-12-12T18:09:04.891Z,21.38
2022-12-12T18:11:35.605Z,22.38
2022-12-12T18:14:04.963Z,24.05
2022-12-12T18:16:34.302Z,22.55
2022-12-12T18:19:03.405Z,22.02
2022-12-12T18:21:59.639Z,22.08
2022-12-12T18:24:23.779Z,23.95
2022-12-12T18:26:52.862Z,24.30
2022-12-12T18:29:21.020Z,23.77
2022-12-12T18:31:48.810Z,26.70
2022-12-12T18:34:16.917Z,23.38
2022-12-12T18:36:44.871Z,25.33
2022-12-12T18:39:12.891Z,23.30
2022-12-12T18:41:41.990Z,23.35
2022-12-12T18:44:13.014Z,24.42
2022-12-12T18:46:43.476Z,25.50
2022-12-12T18:49:13.632Z,26.90
2022-12-12T18:51:41.803Z,28.63
2022-12-12T18:54:14.732Z,26.17
2022-12-12T18:56:45.688Z,27.83
2022-12-12T18:59:14.470Z,26.03
2022-12-12T19:01:42.348Z,24.27
2022-12-12T19:04:14.118Z,21.45
2022-12-12T19:06:44.384Z,22.83
2022-12-12T19:09:15.096Z,23.35
2022-12-12T19:11:44.648Z,26.13
2022-12-12T19:14:15.549Z,24.77
2022-12-12T19:16:44.259Z,22.70
2022-12-12T19:19:12.719Z,21.73
2022-12-12T19:21:40.872Z,22.27
2022-12-12T19:24:12.075Z,22.10
2022-12-12T19:26:41.114Z,21.60
2022-12-12T19:29:13.678Z,21.25
2022-12-12T19:31:41.434Z,23.15
2022-12-12T19:34:11.608Z,23.80
2022-12-12T19:36:40.291Z,23.25
2022-12-12T19:39:08.986Z,23.27
2022-12-12T19:41:38.361Z,23.73
2022-12-12T19:44:08.906Z,24.50
2022-12-12T19:46:37.883Z,24.52
2022-12-12T19:49:08.708Z,23.60
2022-12-12T19:51:39.281Z,24.10
2022-12-12T19:54:09.983Z,23.27
2022-12-12T19:56:40.857Z,24.63
2022-12-12T19:59:09.542Z,24.60
2022-12-12T20:01:39.015Z,24.50
2022-12-12T20:04:09.514Z,23.83
2022-12-12T20:06:44.665Z,24.73
2022-12-12T20:09:13.764Z,23.27
2022-12-12T20:11:43.433Z,25.13
2022-12-12T20:14:14.619Z,36.93
2022-12-12T20:16:44.108Z,29.58
2022-12-12T20:19:13.645Z,32.75
2022-12-12T20:22:00.782Z,39.07
2022-12-12T20:24:29.981Z,37.83
2022-12-12T20:26:59.417Z,27.48
2022-12-12T20:29:27.426Z,25.20
2022-12-12T20:31:56.924Z,26.02
2022-12-12T20:34:25.275Z,26.30
2022-12-12T20:36:55.526Z,27.85
2022-12-12T20:39:24.737Z,33.95
2022-12-12T20:41:54.211Z,29.48
2022-12-12T20:44:22.413Z,28.27
2022-12-12T20:46:49.995Z,25.65
2022-12-12T20:49:22.349Z,25.38
2022-12-12T20:51:58.637Z,28.15
2022-12-12T20:54:29.422Z,23.67
2022-12-12T20:56:58.432Z,26.55
2022-12-12T20:59:26.481Z,24.17
2022-12-12T21:01:54.581Z,22.93
2022-12-12T21:04:24.100Z,29.23
2022-12-12T21:06:52.303Z,22.88
2022-12-12T21:09:25.974Z,30.10
2022-12-12T21:11:55.377Z,24.47
2022-12-12T21:14:23.273Z,25.73
2022-12-12T21:16:51.963Z,22.83
2022-12-12T21:19:19.817Z,23.73
2022-12-12T21:21:48.788Z,23.08
2022-12-12T21:24:17.953Z,22.23
2022-12-12T21:26:45.768Z,36.50
2022-12-12T21:29:13.988Z,32.40
2022-12-12T21:31:49.952Z,31.15
2022-12-12T21:34:20.475Z,25.25
2022-12-12T21:36:51.057Z,40.72
2022-12-12T21:39:18.834Z,47.25
2022-12-12T21:41:47.063Z,46.05
2022-12-12T21:44:14.677Z,34.80
2022-12-12T21:46:44.023Z,43.60
2022-12-12T21:49:25.891Z,31.42
2022-12-12T21:51:55.681Z,26.30
2022-12-12T21:54:23.581Z,22.48
2022-12-12T21:56:51.174Z,36.33
2022-12-12T21:59:18.781Z,35.85
2022-12-12T22:01:46.380Z,30.15
2022-12-12T22:04:14.257Z,27.38
2022-12-12T22:06:41.824Z,36.03
2022-12-12T22:09:12.484Z,35.15
2022-12-12T22:11:50.074Z,43.45
2022-12-12T22:14:21.717Z,33.33
2022-12-12T22:16:49.910Z,37.20
2022-12-12T22:19:18.395Z,28.48
2022-12-12T22:21:47.449Z,35.72
2022-12-12T22:24:17.042Z,32.92
2022-12-12T22:26:46.748Z,31.23
2022-12-12T22:29:16.182Z,29.40
2022-12-12T22:31:45.775Z,28.80
2022-12-12T22:34:15.570Z,25.80
2022-12-12T22:36:43.948Z,31.75
2022-12-12T22:39:16.805Z,26.35
2022-12-12T22:41:45.019Z,25.23
2022-12-12T22:44:16.564Z,22.67
2022-12-12T22:46:44.939Z,21.33
2022-12-12T22:49:14.283Z,21.47
2022-12-12T22:51:42.547Z,20.38
2022-12-12T22:54:10.351Z,19.38
2022-12-12T22:56:40.684Z,19.63
2022-12-12T22:59:09.696Z,19.60
2022-12-12T23:01:37.286Z,19.70
2022-12-12T23:04:05.477Z,18.42
2022-12-12T23:06:34.808Z,19.83
2022-12-12T23:09:05.297Z,18.53
2022-12-12T23:11:34.181Z,18.67
2022-12-12T23:14:07.202Z,18.73
2022-12-12T23:16:35.995Z,18.20
2022-12-12T23:19:05.422Z,18.80
2022-12-12T23:21:33.571Z,18.77
2022-12-12T23:24:01.244Z,19.67
2022-12-12T23:26:30.605Z,17.30
2022-12-12T23:28:59.033Z,18.80
2022-12-12T23:31:29.575Z,20.17
2022-12-12T23:33:59.423Z,20.08
2022-12-12T23:36:28.295Z,20.08
2022-12-12T23:38:56.547Z,23.77
2022-12-12T23:41:24.660Z,25.05
2022-12-12T23:43:52.649Z,25.85
2022-12-12T23:46:29.201Z,30.13
2022-12-12T23:49:00.181Z,25.17
2022-12-12T23:51:30.893Z,20.60
2022-12-12T23:53:59.655Z,22.93
2022-12-12T23:56:28.673Z,20.93
2022-12-12T23:58:58.111Z,19.17
